Interlachen, Florida
Current Conditions -  °F | °C
As of 11:15 AM on Monday 26 Jan 2015 (Local Time) from K28J Reporting Station
Clear Clear  
Wind Chill: 57°   Ceiling: Unl
Heat Index: 57°   Visibility: 10mi
Dew Point: 41°   Wind: 13mph
Humidity: 55%   Direction: 300°WNW
Pressure: 29.87"   Gusts: 26mph
Location:  29.62°N, 81.9°W
Report Text: K28J 261615Z AUTO 30011G23KT 10SM CLR 14/05 A2987 RMK AO2
Loading
Personal Weather Stations






























Interactive Weather Map New forecast layout! Learn more

10-Day Weather Forecast

Advertisements
Track Severe Weather on mobile